Terminal Aerodrome Forecast
Issued by NWS

Home | Current Version | Previous Version | Text Only | Print | Product List | Glossary On
Versions: 1 2 3 4 5 6 7 8 9 10 11 12 13 14 15 16 17
062
FTUS42 KMLB 212345
TAFSFB
TAF
KSFB 212345Z 2200/2224 08005KT P6SM FEW010 OVC080
     FM220600 31003KT 5SM BR FEW005 SCT250
      TEMPO 2206/2208 2SM BR SCT005
     FM220800 VRB02KT 2SM BR BKN008 OVC015
      TEMPO 2209/2213 1/2SM FG OVC005
     FM221400 34005KT P6SM FEW015 SCT035 BKN250
     FM221700 02008KT P6SM SCT030 BKN060=

USA.gov is the U.S. government's official web portal to all federal, state and local government web resources and services.